Gorhamtown, Louisiana
Current Conditions -  °F | °C
As of 9:55 AM on Friday 28 Nov 2014 (Local Time) from KIER Reporting Station
Clear Clear  
Wind Chill: 45°   Ceiling: Unl
Heat Index: 49°   Visibility: 10mi
Dew Point: 38°   Wind: 9mph
Humidity: 65%   Direction: 150°SSE
Pressure: 30.39"   Gusts: NA
Location:  31.9379°N, 92.5858°W
Report Text: KIER 281555Z AUTO 15008KT 10SM CLR 10/03 A3039 RMK AO2 T00960032
Loading
Personal Weather Stations






























Interactive Weather Map New forecast layout! Learn more

10-Day Weather Forecast

Advertisements
Track Severe Weather on mobile